createdAt,value
2018-02-16T00:00:46.329Z,2.60
2018-02-16T00:03:14.336Z,2.60
2018-02-16T00:05:41.597Z,2.70
2018-02-16T00:08:08.914Z,2.70
2018-02-16T00:10:36.166Z,2.80
2018-02-16T00:13:02.693Z,2.70
2018-02-16T00:15:31.266Z,2.80
2018-02-16T00:17:58.233Z,2.80
2018-02-16T00:20:24.722Z,2.80
2018-02-16T00:22:51.213Z,2.90
2018-02-16T00:25:17.745Z,2.90
2018-02-16T00:27:44.234Z,2.90
2018-02-16T00:30:10.916Z,2.90
2018-02-16T00:32:38.909Z,3.00
2018-02-16T00:35:06.219Z,3.00
2018-02-16T00:37:32.733Z,3.00
2018-02-16T00:39:59.274Z,3.10
2018-02-16T00:42:25.759Z,3.10
2018-02-16T00:44:52.249Z,3.10
2018-02-16T00:47:18.878Z,3.10
2018-02-16T00:49:45.410Z,3.10
2018-02-16T00:52:11.900Z,3.10
2018-02-16T00:54:38.415Z,3.10
2018-02-16T00:57:05.160Z,3.10
2018-02-16T00:59:31.679Z,3.10
2018-02-16T01:01:58.325Z,3.10
2018-02-16T01:04:24.850Z,3.10
2018-02-16T01:06:51.389Z,3.00
2018-02-16T01:09:17.924Z,3.00
2018-02-16T01:11:44.392Z,3.00
2018-02-16T01:14:10.925Z,2.90
2018-02-16T01:16:37.456Z,2.90
2018-02-16T01:19:03.988Z,2.80
2018-02-16T01:21:30.481Z,2.80
2018-02-16T01:23:57.131Z,2.70
2018-02-16T01:26:23.628Z,2.70
2018-02-16T01:28:50.218Z,2.60
2018-02-16T01:31:16.692Z,2.60
2018-02-16T01:33:43.196Z,2.60
2018-02-16T01:36:09.755Z,2.60
2018-02-16T01:38:36.273Z,2.50
2018-02-16T01:41:02.785Z,2.50
2018-02-16T01:43:29.241Z,2.50
2018-02-16T01:45:55.776Z,2.50
2018-02-16T01:48:22.301Z,2.50
2018-02-16T01:50:48.878Z,2.50
2018-02-16T01:53:16.276Z,2.50
2018-02-16T01:55:42.808Z,2.40
2018-02-16T01:58:10.037Z,2.50
2018-02-16T02:00:36.677Z,2.50
2018-02-16T02:03:03.936Z,2.50
2018-02-16T02:05:31.232Z,2.50
2018-02-16T02:07:57.785Z,2.50
2018-02-16T02:10:24.311Z,2.50
2018-02-16T02:12:50.849Z,2.60
2018-02-16T02:15:18.123Z,2.60
2018-02-16T02:17:44.674Z,2.60
2018-02-16T02:20:11.188Z,2.60
2018-02-16T02:22:37.729Z,2.60
2018-02-16T02:25:04.277Z,2.60
2018-02-16T02:27:30.784Z,2.70
2018-02-16T02:29:57.340Z,2.70
2018-02-16T02:32:25.935Z,2.70
2018-02-16T02:34:58.721Z,2.70
2018-02-16T02:37:25.228Z,2.80
2018-02-16T02:39:51.782Z,2.70
2018-02-16T02:42:18.309Z,2.70
2018-02-16T02:44:44.806Z,2.70
2018-02-16T02:47:11.352Z,2.70
2018-02-16T02:49:37.898Z,2.80
2018-02-16T02:52:04.432Z,2.80
2018-02-16T02:54:31.079Z,2.80
2018-02-16T02:56:57.649Z,2.70
2018-02-16T02:59:24.227Z,2.70
2018-02-16T03:01:50.810Z,2.80
2018-02-16T03:04:17.340Z,2.80
2018-02-16T03:06:43.970Z,2.80
2018-02-16T03:09:10.571Z,2.70
2018-02-16T03:11:37.158Z,2.70
2018-02-16T03:14:03.694Z,2.70
2018-02-16T03:16:30.229Z,2.70
2018-02-16T03:18:56.799Z,2.70
2018-02-16T03:21:23.330Z,2.70
2018-02-16T03:23:49.875Z,2.70
2018-02-16T03:29:16.825Z,2.60
2018-02-16T03:31:43.267Z,2.60
2018-02-16T03:34:09.695Z,2.60
2018-02-16T03:36:36.112Z,2.60
2018-02-16T03:39:02.552Z,2.60
2018-02-16T03:41:49.787Z,2.60
2018-02-16T03:47:15.325Z,2.60
2018-02-16T03:49:42.168Z,2.60
2018-02-16T03:52:09.114Z,2.60
2018-02-16T03:54:49.066Z,2.60
2018-02-16T03:57:15.919Z,2.60
2018-02-16T03:59:52.896Z,2.60
2018-02-16T04:02:20.465Z,2.60
2018-02-16T04:04:49.344Z,2.70
2018-02-16T04:07:16.905Z,2.70
2018-02-16T04:09:43.748Z,2.60
2018-02-16T04:12:11.435Z,2.70
2018-02-16T04:14:38.257Z,2.60
2018-02-16T04:17:16.976Z,2.70
2018-02-16T04:19:44.441Z,2.70
2018-02-16T04:22:12.005Z,2.70
2018-02-16T04:24:39.454Z,2.70
2018-02-16T04:27:19.507Z,2.70
2018-02-16T04:29:46.248Z,2.70
2018-02-16T04:32:13.913Z,2.70
2018-02-16T04:34:40.661Z,2.70
2018-02-16T04:37:07.498Z,2.70
2018-02-16T04:39:35.063Z,2.70
2018-02-16T04:42:02.517Z,2.70
2018-02-16T04:44:32.028Z,2.70
2018-02-16T04:46:59.581Z,2.70
2018-02-16T04:49:31.033Z,2.70
2018-02-16T04:51:58.594Z,2.70
2018-02-16T04:54:26.155Z,2.70
2018-02-16T04:56:53.614Z,2.70
2018-02-16T04:59:21.276Z,2.70
2018-02-16T05:04:47.324Z,2.70
2018-02-16T05:07:14.883Z,2.70
2018-02-16T05:09:41.726Z,2.70
2018-02-16T05:12:23.521Z,2.70
2018-02-16T05:14:50.364Z,2.70
2018-02-16T05:17:17.926Z,2.70
2018-02-16T05:19:54.595Z,2.70
2018-02-16T05:22:22.159Z,2.70
2018-02-16T05:24:49.821Z,2.70
2018-02-16T05:27:36.942Z,2.70
2018-02-16T05:30:04.502Z,2.70
2018-02-16T05:32:52.031Z,2.70
2018-02-16T05:35:21.642Z,2.70
2018-02-16T05:38:00.467Z,2.70
2018-02-16T05:40:30.995Z,2.70
2018-02-16T05:43:03.887Z,2.70
2018-02-16T05:45:38.305Z,2.70
2018-02-16T05:48:15.388Z,2.70
2018-02-16T05:51:05.781Z,2.80
2018-02-16T05:53:32.523Z,2.70
2018-02-16T05:55:59.571Z,2.70
2018-02-16T05:58:27.133Z,2.80
2018-02-16T06:00:54.692Z,2.70
2018-02-16T06:03:33.413Z,2.80
2018-02-16T06:06:00.974Z,2.70
2018-02-16T06:08:28.639Z,2.80
2018-02-16T06:11:00.500Z,2.70
2018-02-16T06:13:27.342Z,2.80
2018-02-16T06:15:54.088Z,2.70
2018-02-16T06:18:21.648Z,2.80
2018-02-16T06:20:48.488Z,2.80
2018-02-16T06:23:26.699Z,2.80
2018-02-16T06:25:54.260Z,2.80
2018-02-16T06:28:21.825Z,2.80
2018-02-16T06:30:49.482Z,2.80
2018-02-16T06:33:16.223Z,2.70
2018-02-16T06:35:52.898Z,2.70
2018-02-16T06:38:20.459Z,2.80
2018-02-16T06:40:48.018Z,2.80
2018-02-16T06:43:14.864Z,2.80
2018-02-16T06:48:43.366Z,2.80
2018-02-16T06:51:10.113Z,2.80
2018-02-16T06:53:46.885Z,2.80
2018-02-16T06:56:31.142Z,2.80
2018-02-16T06:58:58.912Z,2.80
2018-02-16T07:01:44.692Z,2.80
2018-02-16T07:04:12.252Z,2.80
2018-02-16T07:06:39.606Z,2.80
2018-02-16T07:09:07.167Z,2.80
2018-02-16T07:11:33.910Z,2.80
2018-02-16T07:14:01.480Z,2.80
2018-02-16T07:16:28.425Z,2.80
2018-02-16T07:18:55.985Z,2.90
2018-02-16T07:21:22.820Z,2.90
2018-02-16T07:23:50.383Z,2.90
2018-02-16T07:26:32.378Z,2.90
2018-02-16T07:28:59.939Z,2.90
2018-02-16T07:31:26.785Z,3.00
2018-02-16T07:33:54.344Z,3.00
2018-02-16T07:36:21.187Z,3.00
2018-02-16T07:38:48.036Z,3.00
2018-02-16T07:41:15.594Z,3.10
2018-02-16T07:43:42.333Z,3.10
2018-02-16T07:46:09.894Z,3.20
2018-02-16T07:48:36.737Z,3.20
2018-02-16T07:51:04.298Z,3.30
2018-02-16T07:53:31.756Z,3.40
2018-02-16T07:55:58.602Z,3.30
2018-02-16T07:58:26.057Z,3.50
2018-02-16T08:00:53.641Z,3.60
2018-02-16T08:03:20.462Z,3.50
2018-02-16T08:05:47.305Z,3.70
2018-02-16T08:08:14.968Z,3.80
2018-02-16T08:10:42.529Z,3.90
2018-02-16T08:13:09.373Z,3.90
2018-02-16T08:15:36.217Z,4.00
2018-02-16T08:18:03.781Z,4.00
2018-02-16T08:20:31.348Z,4.00
2018-02-16T08:22:58.901Z,4.00
2018-02-16T08:25:25.748Z,4.00
2018-02-16T08:27:53.304Z,4.10
2018-02-16T08:30:20.145Z,4.00
2018-02-16T08:32:47.809Z,4.10
2018-02-16T08:35:14.654Z,4.00
2018-02-16T08:37:42.212Z,4.10
2018-02-16T08:40:09.057Z,4.10
2018-02-16T08:42:36.617Z,4.10
2018-02-16T08:45:04.178Z,4.20
2018-02-16T08:47:31.838Z,4.40
2018-02-16T08:49:59.401Z,4.50
2018-02-16T08:52:26.855Z,4.60
2018-02-16T08:54:54.318Z,4.60
2018-02-16T08:57:21.879Z,4.60
2018-02-16T08:59:49.439Z,4.60
2018-02-16T09:02:16.187Z,4.60
2018-02-16T09:04:47.685Z,4.60
2018-02-16T09:07:14.597Z,4.50
2018-02-16T09:09:41.422Z,4.60
2018-02-16T09:12:09.085Z,4.60
2018-02-16T09:14:36.647Z,4.60
2018-02-16T09:17:03.490Z,4.60
2018-02-16T09:19:30.949Z,4.60
2018-02-16T09:21:58.508Z,4.80
2018-02-16T09:24:25.961Z,4.90
2018-02-16T09:26:52.809Z,4.90
2018-02-16T09:29:20.369Z,5.40
2018-02-16T09:31:47.111Z,5.40
2018-02-16T09:34:14.671Z,6.00
2018-02-16T09:36:46.431Z,6.50
2018-02-16T09:39:15.527Z,6.40
2018-02-16T09:41:43.093Z,7.00
2018-02-16T09:44:09.940Z,7.00
2018-02-16T09:46:37.594Z,7.10
2018-02-16T09:49:05.158Z,7.00
2018-02-16T09:51:32.611Z,7.00
2018-02-16T09:54:00.182Z,7.00
2018-02-16T09:56:28.041Z,6.90
2018-02-16T09:58:54.886Z,6.80
2018-02-16T10:01:23.469Z,6.70
2018-02-16T10:03:50.312Z,6.60
2018-02-16T10:06:17.168Z,6.60
2018-02-16T10:08:44.001Z,6.50
2018-02-16T10:11:10.750Z,6.40
2018-02-16T10:13:38.306Z,6.50
2018-02-16T10:16:05.863Z,6.70
2018-02-16T10:18:33.422Z,7.30
2018-02-16T10:21:01.086Z,7.70
2018-02-16T10:23:27.930Z,7.70
2018-02-16T10:25:54.572Z,8.30
2018-02-16T10:28:22.132Z,8.80
2018-02-16T10:30:49.691Z,8.90
2018-02-16T10:33:17.250Z,8.90
2018-02-16T10:35:44.095Z,8.90
2018-02-16T10:38:11.653Z,9.70
2018-02-16T10:40:38.500Z,9.70
2018-02-16T10:43:06.161Z,11.20
2018-02-16T10:45:33.824Z,11.30
2018-02-16T10:48:01.384Z,11.10
2018-02-16T10:50:29.050Z,10.60
2018-02-16T10:52:56.608Z,10.10
2018-02-16T10:55:24.067Z,9.80
2018-02-16T10:57:50.912Z,9.80
2018-02-16T11:00:17.760Z,10.10
2018-02-16T11:02:50.587Z,10.90
2018-02-16T11:05:17.687Z,11.90
2018-02-16T11:07:49.251Z,13.00
2018-02-16T11:10:16.802Z,12.60
2018-02-16T11:12:44.373Z,12.20
2018-02-16T11:15:12.238Z,11.70
2018-02-16T11:17:39.793Z,11.70
2018-02-16T11:20:06.544Z,11.70
2018-02-16T11:22:33.376Z,11.80
2018-02-16T11:25:00.113Z,11.90
2018-02-16T11:27:26.961Z,12.30
2018-02-16T11:29:54.523Z,12.80
2018-02-16T11:32:22.015Z,12.70
2018-02-16T11:34:48.825Z,12.70
2018-02-16T11:37:16.704Z,12.00
2018-02-16T11:39:43.945Z,11.90
2018-02-16T11:42:11.506Z,11.00
2018-02-16T11:44:38.962Z,10.60
2018-02-16T11:47:06.637Z,10.30
2018-02-16T11:49:34.086Z,10.10
2018-02-16T11:52:01.655Z,10.10
2018-02-16T11:54:29.216Z,10.30
2018-02-16T11:56:56.061Z,10.30
2018-02-16T11:59:23.617Z,10.30
2018-02-16T12:01:51.172Z,10.40
2018-02-16T12:04:18.015Z,10.40
2018-02-16T12:06:44.757Z,10.80
2018-02-16T12:09:12.219Z,11.20
2018-02-16T12:11:39.058Z,11.20
2018-02-16T12:14:06.621Z,12.00
2018-02-16T12:16:34.077Z,12.60
2018-02-16T12:19:01.637Z,13.20
2018-02-16T12:21:29.405Z,13.50
2018-02-16T12:23:56.460Z,13.50
2018-02-16T12:26:23.208Z,13.90
2018-02-16T12:28:50.142Z,14.30
2018-02-16T12:31:17.006Z,14.20
2018-02-16T12:33:43.826Z,13.80
2018-02-16T12:36:11.393Z,13.70
2018-02-16T12:38:38.131Z,13.70
2018-02-16T12:41:04.972Z,13.50
2018-02-16T12:43:32.450Z,12.20
2018-02-16T12:45:59.376Z,12.10
2018-02-16T12:48:26.220Z,11.70
2018-02-16T12:50:53.063Z,11.10
2018-02-16T12:53:20.823Z,10.50
2018-02-16T12:55:47.572Z,10.40
2018-02-16T12:58:14.438Z,10.20
2018-02-16T13:00:41.290Z,10.10
2018-02-16T13:03:08.102Z,10.00
2018-02-16T13:05:35.253Z,9.90
2018-02-16T13:08:02.712Z,9.70
2018-02-16T13:10:29.555Z,9.70
2018-02-16T13:12:57.115Z,9.40
2018-02-16T13:15:24.584Z,9.30
2018-02-16T13:17:51.311Z,9.30
2018-02-16T13:20:18.056Z,9.20
2018-02-16T13:22:45.515Z,9.10
2018-02-16T13:25:13.079Z,9.20
2018-02-16T13:27:40.636Z,9.30
2018-02-16T13:30:07.377Z,9.30
2018-02-16T13:32:34.835Z,9.20
2018-02-16T13:35:02.296Z,9.10
2018-02-16T13:37:29.806Z,9.10
2018-02-16T13:39:56.697Z,9.10
2018-02-16T13:42:24.976Z,9.50
2018-02-16T13:44:52.743Z,9.90
2018-02-16T13:47:19.585Z,9.90
2018-02-16T13:49:46.429Z,10.00
2018-02-16T13:52:17.061Z,10.10
2018-02-16T13:54:44.521Z,11.00
2018-02-16T13:57:11.262Z,11.00
2018-02-16T13:59:38.003Z,11.40
2018-02-16T14:02:04.754Z,11.80
2018-02-16T14:04:31.591Z,12.20
2018-02-16T14:06:59.256Z,12.70
2018-02-16T14:09:26.831Z,12.90
2018-02-16T14:11:53.656Z,12.90
2018-02-16T14:14:20.395Z,13.00
2018-02-16T14:16:48.066Z,12.90
2018-02-16T14:19:15.620Z,13.00
2018-02-16T14:21:42.469Z,13.00
2018-02-16T14:24:10.031Z,13.00
2018-02-16T14:26:37.687Z,13.00
2018-02-16T14:29:05.248Z,12.80
2018-02-16T14:31:32.808Z,12.60
2018-02-16T14:34:00.370Z,12.40
2018-02-16T14:36:27.930Z,12.20
2018-02-16T14:38:55.398Z,11.80
2018-02-16T14:41:22.846Z,11.50
2018-02-16T14:43:50.406Z,11.40
2018-02-16T14:46:18.070Z,11.30
2018-02-16T14:48:45.837Z,11.30
2018-02-16T14:51:13.396Z,11.20
2018-02-16T14:53:40.136Z,11.20
2018-02-16T14:56:06.985Z,11.20
2018-02-16T14:58:34.339Z,11.20
2018-02-16T15:01:01.927Z,11.00
2018-02-16T15:03:28.741Z,11.00
2018-02-16T15:05:56.303Z,10.50
2018-02-16T15:08:23.760Z,10.20
2018-02-16T15:10:50.603Z,10.20
2018-02-16T15:13:18.164Z,9.70
2018-02-16T15:15:45.725Z,9.50
2018-02-16T15:18:13.284Z,9.20
2018-02-16T15:20:40.129Z,9.20
2018-02-16T15:23:07.691Z,8.80
2018-02-16T15:25:35.250Z,8.70
2018-02-16T15:28:01.995Z,8.60
2018-02-16T15:30:29.455Z,8.30
2018-02-16T15:32:57.011Z,8.10
2018-02-16T15:35:28.567Z,8.00
2018-02-16T15:37:56.125Z,7.80
2018-02-16T15:40:23.686Z,7.70
2018-02-16T15:42:50.532Z,7.60
2018-02-16T15:45:18.198Z,7.30
2018-02-16T15:47:46.014Z,7.00
2018-02-16T15:50:13.011Z,7.00
2018-02-16T15:52:40.568Z,6.70
2018-02-16T15:55:08.127Z,6.70
2018-02-16T15:57:35.689Z,6.70
2018-02-16T16:00:03.148Z,6.70
2018-02-16T16:02:29.991Z,6.70
2018-02-16T16:04:57.654Z,6.70
2018-02-16T16:07:25.215Z,6.60
2018-02-16T16:09:52.060Z,6.60
2018-02-16T16:12:19.619Z,6.50
2018-02-16T16:14:46.565Z,6.50
2018-02-16T16:17:14.331Z,6.40
2018-02-16T16:19:42.099Z,6.30
2018-02-16T16:22:09.144Z,6.20
2018-02-16T16:24:39.740Z,6.00
2018-02-16T16:27:06.521Z,6.00
2018-02-16T16:29:33.975Z,5.80
2018-02-16T16:32:01.548Z,5.60
2018-02-16T16:34:29.303Z,5.40
2018-02-16T16:36:56.183Z,5.40
2018-02-16T16:39:23.007Z,5.20
2018-02-16T16:41:50.562Z,4.80
2018-02-16T16:44:18.419Z,4.80
2018-02-16T16:46:45.980Z,4.50
2018-02-16T16:49:12.822Z,4.50
2018-02-16T16:51:39.871Z,4.40
2018-02-16T16:54:06.719Z,4.20
2018-02-16T16:56:34.283Z,3.80
2018-02-16T16:59:01.835Z,3.70
2018-02-16T17:01:29.403Z,3.50
2018-02-16T17:03:56.859Z,3.30
2018-02-16T17:06:23.698Z,3.30
2018-02-16T17:08:51.361Z,3.00
2018-02-16T17:11:18.422Z,3.00
2018-02-16T17:13:45.254Z,2.90
2018-02-16T17:16:12.814Z,2.70
2018-02-16T17:18:40.477Z,2.60
2018-02-16T17:21:07.322Z,2.60
2018-02-16T17:23:34.062Z,2.50
2018-02-16T17:26:01.621Z,2.20
2018-02-16T17:28:28.466Z,2.20
2018-02-16T17:30:55.309Z,2.10
2018-02-16T17:33:22.871Z,1.90
2018-02-16T17:35:49.513Z,1.90
2018-02-16T17:38:16.967Z,1.70
2018-02-16T17:40:44.629Z,1.60
2018-02-16T17:43:11.474Z,1.60
2018-02-16T17:45:39.036Z,1.40
2018-02-16T17:48:06.596Z,1.30
2018-02-16T17:50:34.156Z,1.30
2018-02-16T17:53:01.716Z,1.20
2018-02-16T17:55:29.179Z,1.20
2018-02-16T17:57:56.940Z,1.10
2018-02-16T18:00:24.503Z,1.00
2018-02-16T18:02:52.061Z,0.90
2018-02-16T18:05:18.913Z,0.90
2018-02-16T18:07:46.572Z,0.80
2018-02-16T18:10:14.128Z,0.70
2018-02-16T18:12:41.693Z,0.70
2018-02-16T18:15:08.532Z,0.60
2018-02-16T18:17:46.947Z,0.50
2018-02-16T18:20:14.508Z,0.50
2018-02-16T18:22:42.076Z,0.50
2018-02-16T18:25:09.633Z,0.50
2018-02-16T18:27:37.191Z,0.50
2018-02-16T18:30:04.854Z,0.60
2018-02-16T18:32:32.446Z,0.50
2018-02-16T18:35:15.744Z,0.50
2018-02-16T18:37:42.690Z,0.50
2018-02-16T18:40:10.249Z,0.40
2018-02-16T18:42:37.811Z,0.30
2018-02-16T18:45:05.377Z,0.30
2018-02-16T18:47:33.660Z,0.20
2018-02-16T18:50:01.209Z,0.10
2018-02-16T18:52:28.671Z,0.00
2018-02-16T18:54:56.023Z,0.00
2018-02-16T18:57:23.583Z,-0.10
2018-02-16T18:59:50.426Z,-0.10
2018-02-16T19:02:22.088Z,-0.10
2018-02-16T19:04:49.645Z,-0.10
2018-02-16T19:07:16.384Z,-0.10
2018-02-16T19:09:43.946Z,0.00
2018-02-16T19:12:10.895Z,0.00
2018-02-16T19:14:38.043Z,0.10
2018-02-16T19:17:05.603Z,0.00
2018-02-16T19:19:32.447Z,0.00
2018-02-16T19:22:00.010Z,0.00
2018-02-16T19:24:26.744Z,0.00
2018-02-16T19:26:54.540Z,0.00
2018-02-16T19:29:21.370Z,0.00
2018-02-16T19:31:49.534Z,-0.20
2018-02-16T19:34:16.375Z,-0.20
2018-02-16T19:36:43.944Z,-0.20
2018-02-16T19:39:10.883Z,-0.30
2018-02-16T19:41:37.726Z,-0.30
2018-02-16T19:44:04.774Z,-0.30
2018-02-16T19:46:33.462Z,-0.30
2018-02-16T19:49:00.304Z,-0.30
2018-02-16T19:51:27.868Z,-0.30
2018-02-16T19:53:55.736Z,-0.30
2018-02-16T19:56:23.296Z,-0.30
2018-02-16T19:58:50.036Z,-0.30
2018-02-16T20:01:17.802Z,-0.30
2018-02-16T20:03:45.361Z,-0.40
2018-02-16T20:06:12.924Z,-0.40
2018-02-16T20:08:40.482Z,-0.40
2018-02-16T20:11:07.332Z,-0.40
2018-02-16T20:13:34.170Z,-0.50
2018-02-16T20:16:01.125Z,-0.50
2018-02-16T20:18:28.579Z,-0.60
2018-02-16T20:20:55.523Z,-0.60
2018-02-16T20:23:22.275Z,-0.60
2018-02-16T20:25:49.104Z,-0.60
2018-02-16T20:28:15.847Z,-0.60
2018-02-16T20:30:43.408Z,-0.70
2018-02-16T20:33:10.967Z,-0.80
2018-02-16T20:35:38.528Z,-0.80
2018-02-16T20:38:05.372Z,-0.80
2018-02-16T20:40:32.932Z,-0.80
2018-02-16T20:43:00.490Z,-0.80
2018-02-16T20:45:28.054Z,-0.90
2018-02-16T20:47:55.411Z,-0.90
2018-02-16T20:50:22.355Z,-0.90
2018-02-16T20:52:49.916Z,-1.00
2018-02-16T20:55:17.579Z,-1.00
2018-02-16T20:57:45.240Z,-1.10
2018-02-16T21:00:12.802Z,-1.10
2018-02-16T21:02:40.368Z,-1.10
2018-02-16T21:05:07.420Z,-1.10
2018-02-16T21:07:34.969Z,-1.10
2018-02-16T21:10:01.814Z,-1.20
2018-02-16T21:12:28.657Z,-1.20
2018-02-16T21:14:56.628Z,-1.30
2018-02-16T21:17:24.197Z,-1.30
2018-02-16T21:19:51.752Z,-1.30
2018-02-16T21:22:19.309Z,-1.40
2018-02-16T21:24:46.154Z,-1.40
2018-02-16T21:27:13.714Z,-1.40
2018-02-16T21:29:40.560Z,-1.50
2018-02-16T21:32:08.120Z,-1.50
2018-02-16T21:34:35.680Z,-1.50
2018-02-16T21:37:03.135Z,-1.50
2018-02-16T21:39:30.698Z,-1.50
2018-02-16T21:41:58.359Z,-1.50
2018-02-16T21:44:25.920Z,-1.50
2018-02-16T21:46:53.482Z,-1.60
2018-02-16T21:49:21.041Z,-1.60
2018-02-16T21:51:48.602Z,-1.60
2018-02-16T21:54:16.161Z,-1.60
2018-02-16T21:56:43.011Z,-1.60
2018-02-16T21:59:09.851Z,-1.50
2018-02-16T22:01:37.410Z,-1.50
2018-02-16T22:04:04.970Z,-1.60
2018-02-16T22:06:32.531Z,-1.60
2018-02-16T22:08:59.375Z,-1.60
2018-02-16T22:11:26.007Z,-1.70
2018-02-16T22:13:53.577Z,-1.70
2018-02-16T22:16:21.133Z,-1.70
2018-02-16T22:18:47.976Z,-1.80
2018-02-16T22:21:14.930Z,-1.70
2018-02-16T22:23:42.381Z,-1.70
2018-02-16T22:26:09.226Z,-1.70
2018-02-16T22:28:36.788Z,-1.80
2018-02-16T22:31:04.244Z,-1.80
2018-02-16T22:33:31.702Z,-1.80
2018-02-16T22:35:59.266Z,-1.80
2018-02-16T22:38:26.210Z,-1.80
2018-02-16T22:40:53.776Z,-1.80
2018-02-16T22:43:21.331Z,-1.80
2018-02-16T22:45:48.892Z,-1.80
2018-02-16T22:48:15.836Z,-1.80
2018-02-16T22:50:43.396Z,-1.80
2018-02-16T22:53:10.960Z,-1.80
2018-02-16T22:55:38.619Z,-1.80
2018-02-16T22:58:06.078Z,-1.80
2018-02-16T23:00:32.819Z,-1.80
2018-02-16T23:02:59.663Z,-1.80
2018-02-16T23:05:27.223Z,-1.80
2018-02-16T23:07:54.783Z,-1.80
2018-02-16T23:10:22.344Z,-1.80
2018-02-16T23:12:49.289Z,-1.90
2018-02-16T23:15:16.133Z,-1.80
2018-02-16T23:17:42.977Z,-1.90
2018-02-16T23:20:09.827Z,-1.90
2018-02-16T23:22:36.675Z,-1.90
2018-02-16T23:25:03.521Z,-1.90
2018-02-16T23:27:30.354Z,-1.90
2018-02-16T23:29:57.928Z,-1.90
2018-02-16T23:32:24.759Z,-1.90
2018-02-16T23:34:51.600Z,-1.90
2018-02-16T23:37:18.442Z,-1.80
2018-02-16T23:39:45.285Z,-1.80
2018-02-16T23:42:12.847Z,-1.70
2018-02-16T23:44:40.355Z,-1.70
2018-02-16T23:47:07.917Z,-1.70
2018-02-16T23:49:35.478Z,-1.70
2018-02-16T23:52:02.216Z,-1.70
2018-02-16T23:54:28.963Z,-1.60
2018-02-16T23:56:56.831Z,-1.60
2018-02-16T23:59:24.392Z,-1.50
